sensor_id;sensor_type;location;lat;lon;timestamp;temperature;humidity
37456;DHT22;23316;50.718;7.328;2023-01-13T00:00:58;14.20;57.00
37456;DHT22;23316;50.718;7.328;2023-01-13T00:03:27;14.20;57.00
37456;DHT22;23316;50.718;7.328;2023-01-13T00:05:54;14.20;57.00
37456;DHT22;23316;50.718;7.328;2023-01-13T00:08:24;14.20;57.00
37456;DHT22;23316;50.718;7.328;2023-01-13T00:10:51;14.20;57.00
37456;DHT22;23316;50.718;7.328;2023-01-13T00:13:19;14.20;57.00
37456;DHT22;23316;50.718;7.328;2023-01-13T00:15:55;14.20;56.90
37456;DHT22;23316;50.718;7.328;2023-01-13T00:18:22;14.20;56.90
37456;DHT22;23316;50.718;7.328;2023-01-13T00:20:58;14.20;57.00
37456;DHT22;23316;50.718;7.328;2023-01-13T00:23:26;14.20;57.00
37456;DHT22;23316;50.718;7.328;2023-01-13T00:25:54;14.20;57.00
37456;DHT22;23316;50.718;7.328;2023-01-13T00:28:22;14.20;57.00
37456;DHT22;23316;50.718;7.328;2023-01-13T00:30:49;14.20;57.00
37456;DHT22;23316;50.718;7.328;2023-01-13T00:33:16;14.20;57.10
37456;DHT22;23316;50.718;7.328;2023-01-13T00:35:43;14.20;57.10
37456;DHT22;23316;50.718;7.328;2023-01-13T00:38:12;14.20;57.20
37456;DHT22;23316;50.718;7.328;2023-01-13T00:40:39;14.20;57.20
37456;DHT22;23316;50.718;7.328;2023-01-13T00:43:07;14.20;57.20
37456;DHT22;23316;50.718;7.328;2023-01-13T00:45:48;14.20;57.20
37456;DHT22;23316;50.718;7.328;2023-01-13T00:48:16;14.20;57.20
37456;DHT22;23316;50.718;7.328;2023-01-13T00:50:43;14.20;57.20
37456;DHT22;23316;50.718;7.328;2023-01-13T00:53:12;14.20;57.10
37456;DHT22;23316;50.718;7.328;2023-01-13T00:55:41;14.20;57.10
37456;DHT22;23316;50.718;7.328;2023-01-13T00:58:08;14.20;57.20
37456;DHT22;23316;50.718;7.328;2023-01-13T01:00:35;14.20;57.20
37456;DHT22;23316;50.718;7.328;2023-01-13T01:03:03;14.20;57.10
37456;DHT22;23316;50.718;7.328;2023-01-13T01:05:33;14.20;57.10
37456;DHT22;23316;50.718;7.328;2023-01-13T01:08:01;14.20;57.10
37456;DHT22;23316;50.718;7.328;2023-01-13T01:10:29;14.30;57.10
37456;DHT22;23316;50.718;7.328;2023-01-13T01:12:57;14.20;57.10
37456;DHT22;23316;50.718;7.328;2023-01-13T01:15:24;14.20;57.00
37456;DHT22;23316;50.718;7.328;2023-01-13T01:17:51;14.20;57.00
37456;DHT22;23316;50.718;7.328;2023-01-13T01:20:18;14.20;57.10
37456;DHT22;23316;50.718;7.328;2023-01-13T01:22:46;14.20;57.10
37456;DHT22;23316;50.718;7.328;2023-01-13T01:25:13;14.20;57.20
37456;DHT22;23316;50.718;7.328;2023-01-13T01:27:42;14.20;57.20
37456;DHT22;23316;50.718;7.328;2023-01-13T01:30:10;14.20;57.20
37456;DHT22;23316;50.718;7.328;2023-01-13T01:32:37;14.20;57.20
37456;DHT22;23316;50.718;7.328;2023-01-13T01:35:05;14.20;57.30
37456;DHT22;23316;50.718;7.328;2023-01-13T01:37:33;14.20;57.30
37456;DHT22;23316;50.718;7.328;2023-01-13T01:40:00;14.20;57.30
37456;DHT22;23316;50.718;7.328;2023-01-13T01:42:27;14.30;57.30
37456;DHT22;23316;50.718;7.328;2023-01-13T01:45:20;14.20;57.30
37456;DHT22;23316;50.718;7.328;2023-01-13T01:47:51;14.20;57.60
37456;DHT22;23316;50.718;7.328;2023-01-13T01:50:19;14.20;58.10
37456;DHT22;23316;50.718;7.328;2023-01-13T01:52:50;14.20;58.10
37456;DHT22;23316;50.718;7.328;2023-01-13T01:55:20;14.10;57.70
37456;DHT22;23316;50.718;7.328;2023-01-13T01:57:52;14.00;57.00
37456;DHT22;23316;50.718;7.328;2023-01-13T02:00:21;13.90;57.00
37456;DHT22;23316;50.718;7.328;2023-01-13T02:02:49;13.70;57.10
37456;DHT22;23316;50.718;7.328;2023-01-13T02:05:17;13.60;57.10
37456;DHT22;23316;50.718;7.328;2023-01-13T02:07:47;13.50;57.40
37456;DHT22;23316;50.718;7.328;2023-01-13T02:10:18;13.40;57.70
37456;DHT22;23316;50.718;7.328;2023-01-13T02:12:46;13.40;58.20
37456;DHT22;23316;50.718;7.328;2023-01-13T02:15:16;13.30;58.50
37456;DHT22;23316;50.718;7.328;2023-01-13T02:17:55;13.20;58.70
37456;DHT22;23316;50.718;7.328;2023-01-13T02:20:54;13.20;58.90
37456;DHT22;23316;50.718;7.328;2023-01-13T02:23:53;13.10;58.90
37456;DHT22;23316;50.718;7.328;2023-01-13T02:30:00;13.10;58.90
37456;DHT22;23316;50.718;7.328;2023-01-13T02:33:06;13.10;58.70
37456;DHT22;23316;50.718;7.328;2023-01-13T02:35:39;13.10;58.90
37456;DHT22;23316;50.718;7.328;2023-01-13T02:38:11;13.10;58.80
37456;DHT22;23316;50.718;7.328;2023-01-13T02:40:45;13.10;58.80
37456;DHT22;23316;50.718;7.328;2023-01-13T02:43:17;13.10;58.80
37456;DHT22;23316;50.718;7.328;2023-01-13T02:46:09;13.10;58.80
37456;DHT22;23316;50.718;7.328;2023-01-13T02:48:42;13.10;58.80
37456;DHT22;23316;50.718;7.328;2023-01-13T02:51:14;13.10;58.70
37456;DHT22;23316;50.718;7.328;2023-01-13T02:53:44;13.10;58.70
37456;DHT22;23316;50.718;7.328;2023-01-13T02:56:14;13.10;58.60
37456;DHT22;23316;50.718;7.328;2023-01-13T02:58:44;13.10;59.10
37456;DHT22;23316;50.718;7.328;2023-01-13T03:01:14;13.10;58.60
37456;DHT22;23316;50.718;7.328;2023-01-13T03:03:41;13.10;58.50
37456;DHT22;23316;50.718;7.328;2023-01-13T03:06:20;13.10;58.50
37456;DHT22;23316;50.718;7.328;2023-01-13T03:08:54;13.10;58.30
37456;DHT22;23316;50.718;7.328;2023-01-13T03:11:27;13.10;58.10
37456;DHT22;23316;50.718;7.328;2023-01-13T03:14:13;13.00;58.00
37456;DHT22;23316;50.718;7.328;2023-01-13T03:17:16;13.00;57.90
37456;DHT22;23316;50.718;7.328;2023-01-13T03:20:00;13.00;57.70
37456;DHT22;23316;50.718;7.328;2023-01-13T03:22:33;13.00;57.60
37456;DHT22;23316;50.718;7.328;2023-01-13T03:25:07;13.00;57.90
37456;DHT22;23316;50.718;7.328;2023-01-13T03:27:41;13.00;57.30
37456;DHT22;23316;50.718;7.328;2023-01-13T03:30:16;13.00;57.00
37456;DHT22;23316;50.718;7.328;2023-01-13T03:32:49;12.90;56.80
37456;DHT22;23316;50.718;7.328;2023-01-13T03:35:21;12.90;56.90
37456;DHT22;23316;50.718;7.328;2023-01-13T03:37:55;12.90;56.90
37456;DHT22;23316;50.718;7.328;2023-01-13T03:40:27;12.90;56.70
37456;DHT22;23316;50.718;7.328;2023-01-13T03:42:59;12.90;56.70
37456;DHT22;23316;50.718;7.328;2023-01-13T03:45:48;12.80;56.70
37456;DHT22;23316;50.718;7.328;2023-01-13T03:48:19;12.90;56.70
37456;DHT22;23316;50.718;7.328;2023-01-13T03:50:50;12.80;56.60
37456;DHT22;23316;50.718;7.328;2023-01-13T03:53:21;12.80;56.50
37456;DHT22;23316;50.718;7.328;2023-01-13T03:55:51;12.80;56.50
37456;DHT22;23316;50.718;7.328;2023-01-13T03:58:23;12.80;56.40
37456;DHT22;23316;50.718;7.328;2023-01-13T04:00:56;12.70;56.20
37456;DHT22;23316;50.718;7.328;2023-01-13T04:03:28;12.70;56.00
37456;DHT22;23316;50.718;7.328;2023-01-13T04:06:01;12.70;56.00
37456;DHT22;23316;50.718;7.328;2023-01-13T04:08:32;12.70;55.80
37456;DHT22;23316;50.718;7.328;2023-01-13T04:11:04;12.70;55.80
37456;DHT22;23316;50.718;7.328;2023-01-13T04:13:36;12.70;55.60
37456;DHT22;23316;50.718;7.328;2023-01-13T04:16:06;12.60;55.30
37456;DHT22;23316;50.718;7.328;2023-01-13T04:18:36;12.60;55.20
37456;DHT22;23316;50.718;7.328;2023-01-13T04:21:05;12.60;55.10
37456;DHT22;23316;50.718;7.328;2023-01-13T04:23:32;12.60;55.30
37456;DHT22;23316;50.718;7.328;2023-01-13T04:25:59;12.60;55.30
37456;DHT22;23316;50.718;7.328;2023-01-13T04:28:27;12.60;55.50
37456;DHT22;23316;50.718;7.328;2023-01-13T04:30:54;12.60;55.30
37456;DHT22;23316;50.718;7.328;2023-01-13T04:33:21;12.60;55.30
37456;DHT22;23316;50.718;7.328;2023-01-13T04:35:50;12.60;55.20
37456;DHT22;23316;50.718;7.328;2023-01-13T04:38:20;12.50;54.90
37456;DHT22;23316;50.718;7.328;2023-01-13T04:40:47;12.60;54.90
37456;DHT22;23316;50.718;7.328;2023-01-13T04:43:14;12.50;54.80
37456;DHT22;23316;50.718;7.328;2023-01-13T04:45:42;12.50;54.80
37456;DHT22;23316;50.718;7.328;2023-01-13T04:48:09;12.50;54.80
37456;DHT22;23316;50.718;7.328;2023-01-13T04:50:37;12.50;54.80
37456;DHT22;23316;50.718;7.328;2023-01-13T04:53:06;12.50;54.70
37456;DHT22;23316;50.718;7.328;2023-01-13T04:55:33;12.50;54.70
37456;DHT22;23316;50.718;7.328;2023-01-13T04:58:02;12.50;54.60
37456;DHT22;23316;50.718;7.328;2023-01-13T05:00:29;12.50;54.50
37456;DHT22;23316;50.718;7.328;2023-01-13T05:02:57;12.50;54.40
37456;DHT22;23316;50.718;7.328;2023-01-13T05:05:24;12.40;54.60
37456;DHT22;23316;50.718;7.328;2023-01-13T05:07:52;12.40;54.40
37456;DHT22;23316;50.718;7.328;2023-01-13T05:10:21;12.40;54.40
37456;DHT22;23316;50.718;7.328;2023-01-13T05:12:48;12.40;54.20
37456;DHT22;23316;50.718;7.328;2023-01-13T05:15:33;12.40;54.10
37456;DHT22;23316;50.718;7.328;2023-01-13T05:18:17;12.40;54.30
37456;DHT22;23316;50.718;7.328;2023-01-13T05:20:45;12.40;54.50
37456;DHT22;23316;50.718;7.328;2023-01-13T05:23:12;12.40;54.20
37456;DHT22;23316;50.718;7.328;2023-01-13T05:25:58;12.30;53.90
37456;DHT22;23316;50.718;7.328;2023-01-13T05:28:28;12.30;53.60
37456;DHT22;23316;50.718;7.328;2023-01-13T05:30:56;12.30;53.60
37456;DHT22;23316;50.718;7.328;2023-01-13T05:33:24;12.30;53.60
37456;DHT22;23316;50.718;7.328;2023-01-13T05:35:51;12.30;53.40
37456;DHT22;23316;50.718;7.328;2023-01-13T05:38:18;12.20;53.40
37456;DHT22;23316;50.718;7.328;2023-01-13T05:40:45;12.20;53.40
37456;DHT22;23316;50.718;7.328;2023-01-13T05:43:32;12.20;53.30
37456;DHT22;23316;50.718;7.328;2023-01-13T05:46:01;12.20;53.30
37456;DHT22;23316;50.718;7.328;2023-01-13T05:48:30;12.10;53.30
37456;DHT22;23316;50.718;7.328;2023-01-13T05:50:58;12.10;53.30
37456;DHT22;23316;50.718;7.328;2023-01-13T05:53:26;12.10;53.40
37456;DHT22;23316;50.718;7.328;2023-01-13T05:55:53;12.10;53.30
37456;DHT22;23316;50.718;7.328;2023-01-13T05:58:22;12.10;53.20
37456;DHT22;23316;50.718;7.328;2023-01-13T06:00:51;12.10;53.20
37456;DHT22;23316;50.718;7.328;2023-01-13T06:03:19;12.10;53.00
37456;DHT22;23316;50.718;7.328;2023-01-13T06:05:46;12.10;53.20
37456;DHT22;23316;50.718;7.328;2023-01-13T06:08:15;12.00;53.20
37456;DHT22;23316;50.718;7.328;2023-01-13T06:10:43;12.10;53.20
37456;DHT22;23316;50.718;7.328;2023-01-13T06:13:11;12.10;53.20
37456;DHT22;23316;50.718;7.328;2023-01-13T06:15:38;12.10;53.20
37456;DHT22;23316;50.718;7.328;2023-01-13T06:18:06;12.00;53.10
37456;DHT22;23316;50.718;7.328;2023-01-13T06:20:34;12.00;53.20
37456;DHT22;23316;50.718;7.328;2023-01-13T06:23:01;12.00;53.30
37456;DHT22;23316;50.718;7.328;2023-01-13T06:25:37;12.00;53.30
37456;DHT22;23316;50.718;7.328;2023-01-13T06:28:05;12.10;53.40
37456;DHT22;23316;50.718;7.328;2023-01-13T06:30:36;12.00;53.40
37456;DHT22;23316;50.718;7.328;2023-01-13T06:33:08;12.10;53.30
37456;DHT22;23316;50.718;7.328;2023-01-13T06:35:40;12.10;53.30
37456;DHT22;23316;50.718;7.328;2023-01-13T06:38:12;12.10;53.30
37456;DHT22;23316;50.718;7.328;2023-01-13T06:40:41;12.10;53.20
37456;DHT22;23316;50.718;7.328;2023-01-13T06:43:09;12.10;53.30
37456;DHT22;23316;50.718;7.328;2023-01-13T06:45:43;12.10;53.30
37456;DHT22;23316;50.718;7.328;2023-01-13T06:48:13;12.10;53.20
37456;DHT22;23316;50.718;7.328;2023-01-13T06:50:40;12.10;53.80
37456;DHT22;23316;50.718;7.328;2023-01-13T06:53:08;12.10;53.40
37456;DHT22;23316;50.718;7.328;2023-01-13T06:55:36;12.10;53.40
37456;DHT22;23316;50.718;7.328;2023-01-13T06:58:03;12.10;53.40
37456;DHT22;23316;50.718;7.328;2023-01-13T07:00:30;12.00;53.40
37456;DHT22;23316;50.718;7.328;2023-01-13T07:03:08;12.00;53.40
37456;DHT22;23316;50.718;7.328;2023-01-13T07:05:37;12.00;53.50
37456;DHT22;23316;50.718;7.328;2023-01-13T07:08:05;12.00;53.50
37456;DHT22;23316;50.718;7.328;2023-01-13T07:10:34;12.00;53.50
37456;DHT22;23316;50.718;7.328;2023-01-13T07:13:03;12.00;53.60
37456;DHT22;23316;50.718;7.328;2023-01-13T07:15:55;12.00;53.60
37456;DHT22;23316;50.718;7.328;2023-01-13T07:18:23;12.00;53.80
37456;DHT22;23316;50.718;7.328;2023-01-13T07:20:54;12.00;53.90
37456;DHT22;23316;50.718;7.328;2023-01-13T07:23:22;12.00;53.90
37456;DHT22;23316;50.718;7.328;2023-01-13T07:25:49;12.00;53.80
37456;DHT22;23316;50.718;7.328;2023-01-13T07:28:17;12.00;53.90
37456;DHT22;23316;50.718;7.328;2023-01-13T07:30:44;12.00;54.00
37456;DHT22;23316;50.718;7.328;2023-01-13T07:33:11;12.00;54.10
37456;DHT22;23316;50.718;7.328;2023-01-13T07:35:38;12.00;54.20
37456;DHT22;23316;50.718;7.328;2023-01-13T07:38:07;12.00;54.20
37456;DHT22;23316;50.718;7.328;2023-01-13T07:40:34;12.00;54.10
37456;DHT22;23316;50.718;7.328;2023-01-13T07:43:01;12.00;54.20
37456;DHT22;23316;50.718;7.328;2023-01-13T07:45:46;12.00;54.30
37456;DHT22;23316;50.718;7.328;2023-01-13T07:48:13;12.00;54.30
37456;DHT22;23316;50.718;7.328;2023-01-13T07:50:41;12.10;54.30
37456;DHT22;23316;50.718;7.328;2023-01-13T07:53:09;12.10;54.30
37456;DHT22;23316;50.718;7.328;2023-01-13T07:55:40;12.10;54.30
37456;DHT22;23316;50.718;7.328;2023-01-13T07:58:08;12.10;54.30
37456;DHT22;23316;50.718;7.328;2023-01-13T08:00:36;12.10;54.20
37456;DHT22;23316;50.718;7.328;2023-01-13T08:03:03;12.10;54.10
37456;DHT22;23316;50.718;7.328;2023-01-13T08:05:31;12.10;54.20
37456;DHT22;23316;50.718;7.328;2023-01-13T08:08:00;12.10;54.50
37456;DHT22;23316;50.718;7.328;2023-01-13T08:10:29;12.10;54.60
37456;DHT22;23316;50.718;7.328;2023-01-13T08:12:56;12.10;54.50
37456;DHT22;23316;50.718;7.328;2023-01-13T08:15:41;12.10;54.50
37456;DHT22;23316;50.718;7.328;2023-01-13T08:18:08;12.10;54.50
37456;DHT22;23316;50.718;7.328;2023-01-13T08:20:36;12.00;54.50
37456;DHT22;23316;50.718;7.328;2023-01-13T08:23:03;12.00;54.60
37456;DHT22;23316;50.718;7.328;2023-01-13T08:25:32;12.00;55.10
37456;DHT22;23316;50.718;7.328;2023-01-13T08:27:59;12.00;54.80
37456;DHT22;23316;50.718;7.328;2023-01-13T08:30:27;12.00;54.90
37456;DHT22;23316;50.718;7.328;2023-01-13T08:32:55;11.90;54.90
37456;DHT22;23316;50.718;7.328;2023-01-13T08:35:22;11.90;54.80
37456;DHT22;23316;50.718;7.328;2023-01-13T08:37:50;11.90;54.80
37456;DHT22;23316;50.718;7.328;2023-01-13T08:40:18;11.90;54.80
37456;DHT22;23316;50.718;7.328;2023-01-13T08:42:48;11.80;54.80
37456;DHT22;23316;50.718;7.328;2023-01-13T08:45:18;11.80;54.80
37456;DHT22;23316;50.718;7.328;2023-01-13T08:47:45;11.80;54.80
37456;DHT22;23316;50.718;7.328;2023-01-13T08:50:13;11.80;54.90
37456;DHT22;23316;50.718;7.328;2023-01-13T08:52:40;11.80;54.90
37456;DHT22;23316;50.718;7.328;2023-01-13T08:55:09;11.80;54.90
37456;DHT22;23316;50.718;7.328;2023-01-13T08:57:36;11.80;54.90
37456;DHT22;23316;50.718;7.328;2023-01-13T09:00:06;11.80;55.00
37456;DHT22;23316;50.718;7.328;2023-01-13T09:02:34;11.80;54.80
37456;DHT22;23316;50.718;7.328;2023-01-13T09:05:03;11.70;54.80
37456;DHT22;23316;50.718;7.328;2023-01-13T09:07:33;11.70;54.80
37456;DHT22;23316;50.718;7.328;2023-01-13T09:10:00;11.70;54.90
37456;DHT22;23316;50.718;7.328;2023-01-13T09:12:28;11.70;54.90
37456;DHT22;23316;50.718;7.328;2023-01-13T09:15:14;11.70;55.50
37456;DHT22;23316;50.718;7.328;2023-01-13T09:17:43;11.70;55.00
37456;DHT22;23316;50.718;7.328;2023-01-13T09:20:11;11.70;55.00
37456;DHT22;23316;50.718;7.328;2023-01-13T09:22:39;11.70;55.00
37456;DHT22;23316;50.718;7.328;2023-01-13T09:25:07;11.80;54.80
37456;DHT22;23316;50.718;7.328;2023-01-13T09:27:34;11.80;54.70
37456;DHT22;23316;50.718;7.328;2023-01-13T09:30:02;11.80;54.70
37456;DHT22;23316;50.718;7.328;2023-01-13T09:32:31;11.80;54.80
37456;DHT22;23316;50.718;7.328;2023-01-13T09:34:58;11.80;54.70
37456;DHT22;23316;50.718;7.328;2023-01-13T09:37:25;11.90;54.60
37456;DHT22;23316;50.718;7.328;2023-01-13T09:39:52;11.90;54.60
37456;DHT22;23316;50.718;7.328;2023-01-13T09:42:27;11.90;54.30
37456;DHT22;23316;50.718;7.328;2023-01-13T09:45:14;11.90;54.30
37456;DHT22;23316;50.718;7.328;2023-01-13T09:47:48;12.00;54.50
37456;DHT22;23316;50.718;7.328;2023-01-13T09:50:27;12.00;54.30
37456;DHT22;23316;50.718;7.328;2023-01-13T09:52:56;12.00;54.40
37456;DHT22;23316;50.718;7.328;2023-01-13T09:55:30;12.00;54.00
37456;DHT22;23316;50.718;7.328;2023-01-13T09:58:00;12.00;53.60
37456;DHT22;23316;50.718;7.328;2023-01-13T10:00:35;12.00;53.50
37456;DHT22;23316;50.718;7.328;2023-01-13T10:03:18;12.00;53.40
37456;DHT22;23316;50.718;7.328;2023-01-13T10:05:49;12.00;53.40
37456;DHT22;23316;50.718;7.328;2023-01-13T10:08:24;12.00;53.40
37456;DHT22;23316;50.718;7.328;2023-01-13T10:10:54;12.00;53.10
37456;DHT22;23316;50.718;7.328;2023-01-13T10:13:25;12.00;53.10
37456;DHT22;23316;50.718;7.328;2023-01-13T10:15:58;12.10;53.30
37456;DHT22;23316;50.718;7.328;2023-01-13T10:18:38;12.10;53.20
37456;DHT22;23316;50.718;7.328;2023-01-13T10:21:18;12.10;52.70
37456;DHT22;23316;50.718;7.328;2023-01-13T10:23:57;12.10;53.10
37456;DHT22;23316;50.718;7.328;2023-01-13T10:26:38;12.20;52.90
37456;DHT22;23316;50.718;7.328;2023-01-13T10:29:18;12.20;52.80
37456;DHT22;23316;50.718;7.328;2023-01-13T10:31:46;12.20;52.60
37456;DHT22;23316;50.718;7.328;2023-01-13T10:34:15;12.30;52.70
37456;DHT22;23316;50.718;7.328;2023-01-13T10:36:57;12.30;52.60
37456;DHT22;23316;50.718;7.328;2023-01-13T10:39:39;12.30;52.60
37456;DHT22;23316;50.718;7.328;2023-01-13T10:42:12;12.30;52.10
37456;DHT22;23316;50.718;7.328;2023-01-13T10:44:50;12.40;52.10
37456;DHT22;23316;50.718;7.328;2023-01-13T10:47:23;12.40;52.10
37456;DHT22;23316;50.718;7.328;2023-01-13T10:50:17;12.50;52.00
37456;DHT22;23316;50.718;7.328;2023-01-13T10:52:56;12.50;51.30
37456;DHT22;23316;50.718;7.328;2023-01-13T10:55:26;12.50;51.80
37456;DHT22;23316;50.718;7.328;2023-01-13T10:57:55;12.50;51.20
37456;DHT22;23316;50.718;7.328;2023-01-13T11:00:27;12.50;51.10
37456;DHT22;23316;50.718;7.328;2023-01-13T11:03:14;12.50;51.40
37456;DHT22;23316;50.718;7.328;2023-01-13T11:05:51;12.50;50.70
37456;DHT22;23316;50.718;7.328;2023-01-13T11:08:21;12.50;50.40
37456;DHT22;23316;50.718;7.328;2023-01-13T11:10:51;12.50;50.90
37456;DHT22;23316;50.718;7.328;2023-01-13T11:13:22;12.60;50.90
37456;DHT22;23316;50.718;7.328;2023-01-13T11:15:57;12.60;51.10
37456;DHT22;23316;50.718;7.328;2023-01-13T11:18:34;12.60;50.90
37456;DHT22;23316;50.718;7.328;2023-01-13T11:21:10;12.60;50.80
37456;DHT22;23316;50.718;7.328;2023-01-13T11:23:46;12.60;50.80
37456;DHT22;23316;50.718;7.328;2023-01-13T11:26:17;12.60;50.80
37456;DHT22;23316;50.718;7.328;2023-01-13T11:28:51;12.70;50.70
37456;DHT22;23316;50.718;7.328;2023-01-13T11:31:25;12.70;50.30
37456;DHT22;23316;50.718;7.328;2023-01-13T11:33:58;12.70;50.50
37456;DHT22;23316;50.718;7.328;2023-01-13T11:36:31;12.70;50.30
37456;DHT22;23316;50.718;7.328;2023-01-13T11:39:08;12.70;50.20
37456;DHT22;23316;50.718;7.328;2023-01-13T11:41:42;12.70;50.10
37456;DHT22;23316;50.718;7.328;2023-01-13T11:44:18;12.80;50.20
37456;DHT22;23316;50.718;7.328;2023-01-13T11:46:47;12.80;50.10
37456;DHT22;23316;50.718;7.328;2023-01-13T11:49:23;12.80;50.50
37456;DHT22;23316;50.718;7.328;2023-01-13T11:51:56;12.80;50.60
37456;DHT22;23316;50.718;7.328;2023-01-13T11:54:46;12.80;50.40
37456;DHT22;23316;50.718;7.328;2023-01-13T11:57:31;12.80;50.60
37456;DHT22;23316;50.718;7.328;2023-01-13T12:00:16;12.80;50.10
37456;DHT22;23316;50.718;7.328;2023-01-13T12:02:57;12.80;49.80
37456;DHT22;23316;50.718;7.328;2023-01-13T12:05:35;12.90;50.00
37456;DHT22;23316;50.718;7.328;2023-01-13T12:08:15;12.90;50.00
37456;DHT22;23316;50.718;7.328;2023-01-13T12:10:56;12.90;50.00
37456;DHT22;23316;50.718;7.328;2023-01-13T12:13:33;12.90;49.90
37456;DHT22;23316;50.718;7.328;2023-01-13T12:16:14;12.90;49.90
37456;DHT22;23316;50.718;7.328;2023-01-13T12:19:05;13.00;49.90
37456;DHT22;23316;50.718;7.328;2023-01-13T12:24:36;13.00;49.90
37456;DHT22;23316;50.718;7.328;2023-01-13T12:27:12;13.00;50.20
37456;DHT22;23316;50.718;7.328;2023-01-13T12:29:43;13.00;50.80
37456;DHT22;23316;50.718;7.328;2023-01-13T12:32:14;13.00;51.00
37456;DHT22;23316;50.718;7.328;2023-01-13T12:34:51;12.90;51.10
37456;DHT22;23316;50.718;7.328;2023-01-13T12:37:26;12.90;51.20
37456;DHT22;23316;50.718;7.328;2023-01-13T12:40:10;12.90;51.10
37456;DHT22;23316;50.718;7.328;2023-01-13T12:42:49;12.90;51.30
37456;DHT22;23316;50.718;7.328;2023-01-13T12:45:44;12.90;51.40
37456;DHT22;23316;50.718;7.328;2023-01-13T12:48:45;12.90;51.70
37456;DHT22;23316;50.718;7.328;2023-01-13T12:51:22;12.90;51.70
37456;DHT22;23316;50.718;7.328;2023-01-13T12:53:50;12.90;51.60
37456;DHT22;23316;50.718;7.328;2023-01-13T12:56:39;12.90;51.60
37456;DHT22;23316;50.718;7.328;2023-01-13T12:59:34;12.90;51.60
37456;DHT22;23316;50.718;7.328;2023-01-13T13:02:29;12.90;51.20
37456;DHT22;23316;50.718;7.328;2023-01-13T13:05:00;12.90;51.20
37456;DHT22;23316;50.718;7.328;2023-01-13T13:07:39;12.90;50.90
37456;DHT22;23316;50.718;7.328;2023-01-13T13:10:16;12.90;50.90
37456;DHT22;23316;50.718;7.328;2023-01-13T13:12:59;12.80;50.90
37456;DHT22;23316;50.718;7.328;2023-01-13T13:15:45;12.80;50.70
37456;DHT22;23316;50.718;7.328;2023-01-13T13:18:25;12.80;50.70
37456;DHT22;23316;50.718;7.328;2023-01-13T13:21:04;12.80;50.90
37456;DHT22;23316;50.718;7.328;2023-01-13T13:26:37;12.70;50.60
37456;DHT22;23316;50.718;7.328;2023-01-13T13:32:29;12.80;50.40
37456;DHT22;23316;50.718;7.328;2023-01-13T13:37:59;12.70;50.80
37456;DHT22;23316;50.718;7.328;2023-01-13T13:40:48;12.70;50.70
37456;DHT22;23316;50.718;7.328;2023-01-13T13:43:38;12.70;50.70
37456;DHT22;23316;50.718;7.328;2023-01-13T13:46:27;12.70;50.90
37456;DHT22;23316;50.718;7.328;2023-01-13T13:49:15;12.70;50.80
37456;DHT22;23316;50.718;7.328;2023-01-13T13:51:46;12.70;50.80
37456;DHT22;23316;50.718;7.328;2023-01-13T13:54:17;12.70;50.90
37456;DHT22;23316;50.718;7.328;2023-01-13T13:56:46;12.70;51.00
37456;DHT22;23316;50.718;7.328;2023-01-13T13:59:18;12.70;51.20
37456;DHT22;23316;50.718;7.328;2023-01-13T14:01:50;12.60;51.00
37456;DHT22;23316;50.718;7.328;2023-01-13T14:04:19;12.60;51.20
37456;DHT22;23316;50.718;7.328;2023-01-13T14:06:55;12.60;51.20
37456;DHT22;23316;50.718;7.328;2023-01-13T14:09:24;12.60;51.10
37456;DHT22;23316;50.718;7.328;2023-01-13T14:11:58;12.60;51.20
37456;DHT22;23316;50.718;7.328;2023-01-13T14:14:26;12.70;51.30
37456;DHT22;23316;50.718;7.328;2023-01-13T14:16:55;12.60;51.20
37456;DHT22;23316;50.718;7.328;2023-01-13T14:19:30;12.60;51.20
37456;DHT22;23316;50.718;7.328;2023-01-13T14:21:58;12.60;51.30
37456;DHT22;23316;50.718;7.328;2023-01-13T14:24:27;12.60;51.30
37456;DHT22;23316;50.718;7.328;2023-01-13T14:27:07;12.60;51.10
37456;DHT22;23316;50.718;7.328;2023-01-13T14:29:35;12.60;51.10
37456;DHT22;23316;50.718;7.328;2023-01-13T14:32:04;12.60;51.20
37456;DHT22;23316;50.718;7.328;2023-01-13T14:34:33;12.60;51.10
37456;DHT22;23316;50.718;7.328;2023-01-13T14:37:02;12.60;51.00
37456;DHT22;23316;50.718;7.328;2023-01-13T14:39:35;12.60;50.80
37456;DHT22;23316;50.718;7.328;2023-01-13T14:42:03;12.60;51.00
37456;DHT22;23316;50.718;7.328;2023-01-13T14:44:32;12.60;51.10
37456;DHT22;23316;50.718;7.328;2023-01-13T14:47:04;12.60;51.80
37456;DHT22;23316;50.718;7.328;2023-01-13T14:49:52;12.60;51.80
37456;DHT22;23316;50.718;7.328;2023-01-13T14:52:25;12.50;52.40
37456;DHT22;23316;50.718;7.328;2023-01-13T14:55:18;12.50;53.30
37456;DHT22;23316;50.718;7.328;2023-01-13T14:57:47;12.40;53.90
37456;DHT22;23316;50.718;7.328;2023-01-13T15:00:21;12.30;53.50
37456;DHT22;23316;50.718;7.328;2023-01-13T15:03:00;12.20;54.10
37456;DHT22;23316;50.718;7.328;2023-01-13T15:05:35;12.20;54.60
37456;DHT22;23316;50.718;7.328;2023-01-13T15:08:06;12.10;54.80
37456;DHT22;23316;50.718;7.328;2023-01-13T15:10:46;12.00;54.90
37456;DHT22;23316;50.718;7.328;2023-01-13T15:13:23;12.00;55.20
37456;DHT22;23316;50.718;7.328;2023-01-13T15:15:52;11.90;55.50
37456;DHT22;23316;50.718;7.328;2023-01-13T15:18:21;11.90;55.40
37456;DHT22;23316;50.718;7.328;2023-01-13T15:20:48;11.90;55.50
37456;DHT22;23316;50.718;7.328;2023-01-13T15:23:16;11.90;55.50
37456;DHT22;23316;50.718;7.328;2023-01-13T15:25:45;11.80;55.60
37456;DHT22;23316;50.718;7.328;2023-01-13T15:28:16;11.80;55.70
37456;DHT22;23316;50.718;7.328;2023-01-13T15:30:45;11.80;55.70
37456;DHT22;23316;50.718;7.328;2023-01-13T15:33:13;11.80;55.70
37456;DHT22;23316;50.718;7.328;2023-01-13T15:35:44;11.80;55.50
37456;DHT22;23316;50.718;7.328;2023-01-13T15:38:12;11.80;55.30
37456;DHT22;23316;50.718;7.328;2023-01-13T15:40:41;11.80;55.30
37456;DHT22;23316;50.718;7.328;2023-01-13T15:43:12;11.70;55.00
37456;DHT22;23316;50.718;7.328;2023-01-13T15:45:57;11.80;55.10
37456;DHT22;23316;50.718;7.328;2023-01-13T15:48:42;11.80;55.10
37456;DHT22;23316;50.718;7.328;2023-01-13T15:51:11;11.70;55.20
37456;DHT22;23316;50.718;7.328;2023-01-13T15:53:39;11.70;55.70
37456;DHT22;23316;50.718;7.328;2023-01-13T15:56:12;11.80;55.00
37456;DHT22;23316;50.718;7.328;2023-01-13T15:58:40;11.70;54.90
37456;DHT22;23316;50.718;7.328;2023-01-13T16:01:09;11.80;55.00
37456;DHT22;23316;50.718;7.328;2023-01-13T16:03:37;11.80;55.10
37456;DHT22;23316;50.718;7.328;2023-01-13T16:06:13;11.80;54.90
37456;DHT22;23316;50.718;7.328;2023-01-13T16:08:41;11.80;54.80
37456;DHT22;23316;50.718;7.328;2023-01-13T16:11:09;11.70;54.70
37456;DHT22;23316;50.718;7.328;2023-01-13T16:13:36;11.80;54.70
37456;DHT22;23316;50.718;7.328;2023-01-13T16:16:17;11.80;54.70
37456;DHT22;23316;50.718;7.328;2023-01-13T16:18:45;11.80;54.70